sensor_id;sensor_type;location;lat;lon;timestamp;P1;durP1;ratioP1;P2;durP2;ratioP2
10645;SDS011;5371;49.782;9.932;2023-03-14T00:01:34;1.15;;;0.80;;
10645;SDS011;5371;49.782;9.932;2023-03-14T00:04:03;2.47;;;0.70;;
10645;SDS011;5371;49.782;9.932;2023-03-14T00:06:30;1.05;;;0.80;;
10645;SDS011;5371;49.782;9.932;2023-03-14T00:08:57;0.88;;;0.65;;
10645;SDS011;5371;49.782;9.932;2023-03-14T00:11:24;0.75;;;0.70;;
10645;SDS011;5371;49.782;9.932;2023-03-14T00:13:51;2.35;;;0.80;;
10645;SDS011;5371;49.782;9.932;2023-03-14T00:16:19;0.75;;;0.73;;
10645;SDS011;5371;49.782;9.932;2023-03-14T00:18:48;1.33;;;0.80;;
10645;SDS011;5371;49.782;9.932;2023-03-14T00:21:15;2.42;;;0.82;;
10645;SDS011;5371;49.782;9.932;2023-03-14T00:23:42;1.25;;;0.80;;
10645;SDS011;5371;49.782;9.932;2023-03-14T00:26:10;0.95;;;0.80;;
10645;SDS011;5371;49.782;9.932;2023-03-14T00:28:38;1.20;;;0.80;;
10645;SDS011;5371;49.782;9.932;2023-03-14T00:31:06;0.70;;;0.60;;
10645;SDS011;5371;49.782;9.932;2023-03-14T00:33:35;1.77;;;0.80;;
10645;SDS011;5371;49.782;9.932;2023-03-14T00:36:04;0.77;;;0.70;;
10645;SDS011;5371;49.782;9.932;2023-03-14T00:38:36;0.90;;;0.70;;
10645;SDS011;5371;49.782;9.932;2023-03-14T00:41:04;1.58;;;0.77;;
10645;SDS011;5371;49.782;9.932;2023-03-14T00:43:33;0.60;;;0.60;;
10645;SDS011;5371;49.782;9.932;2023-03-14T00:46:00;0.60;;;0.60;;
10645;SDS011;5371;49.782;9.932;2023-03-14T00:48:28;1.95;;;0.93;;
10645;SDS011;5371;49.782;9.932;2023-03-14T00:50:55;0.70;;;0.60;;
10645;SDS011;5371;49.782;9.932;2023-03-14T00:53:23;0.98;;;0.80;;
10645;SDS011;5371;49.782;9.932;2023-03-14T00:55:50;1.73;;;0.80;;
10645;SDS011;5371;49.782;9.932;2023-03-14T00:58:18;1.23;;;0.60;;
10645;SDS011;5371;49.782;9.932;2023-03-14T01:00:45;1.02;;;0.80;;
10645;SDS011;5371;49.782;9.932;2023-03-14T01:03:13;2.70;;;0.70;;
10645;SDS011;5371;49.782;9.932;2023-03-14T01:05:41;2.00;;;0.80;;
10645;SDS011;5371;49.782;9.932;2023-03-14T01:08:08;1.30;;;0.77;;
10645;SDS011;5371;49.782;9.932;2023-03-14T01:10:39;1.40;;;0.75;;
10645;SDS011;5371;49.782;9.932;2023-03-14T01:13:06;1.13;;;0.70;;
10645;SDS011;5371;49.782;9.932;2023-03-14T01:15:35;3.00;;;1.00;;
10645;SDS011;5371;49.782;9.932;2023-03-14T01:18:02;1.35;;;0.90;;
10645;SDS011;5371;49.782;9.932;2023-03-14T01:20:30;0.82;;;0.63;;
10645;SDS011;5371;49.782;9.932;2023-03-14T01:22:57;1.33;;;0.75;;
10645;SDS011;5371;49.782;9.932;2023-03-14T01:25:24;1.60;;;0.90;;
10645;SDS011;5371;49.782;9.932;2023-03-14T01:27:53;1.20;;;0.80;;
10645;SDS011;5371;49.782;9.932;2023-03-14T01:30:20;1.25;;;0.70;;
10645;SDS011;5371;49.782;9.932;2023-03-14T01:32:47;1.65;;;0.80;;
10645;SDS011;5371;49.782;9.932;2023-03-14T01:35:14;1.42;;;0.70;;
10645;SDS011;5371;49.782;9.932;2023-03-14T01:37:41;2.50;;;0.80;;
10645;SDS011;5371;49.782;9.932;2023-03-14T01:40:13;1.77;;;0.60;;
10645;SDS011;5371;49.782;9.932;2023-03-14T01:42:44;1.23;;;0.70;;
10645;SDS011;5371;49.782;9.932;2023-03-14T01:48:20;2.13;;;0.90;;
10645;SDS011;5371;49.782;9.932;2023-03-14T01:50:47;0.93;;;0.80;;
10645;SDS011;5371;49.782;9.932;2023-03-14T01:53:14;1.67;;;0.70;;
10645;SDS011;5371;49.782;9.932;2023-03-14T01:55:42;2.50;;;0.82;;
10645;SDS011;5371;49.782;9.932;2023-03-14T01:58:10;1.60;;;0.90;;
10645;SDS011;5371;49.782;9.932;2023-03-14T02:00:37;1.55;;;0.80;;
10645;SDS011;5371;49.782;9.932;2023-03-14T02:03:05;1.67;;;0.70;;
10645;SDS011;5371;49.782;9.932;2023-03-14T02:05:39;0.75;;;0.60;;
10645;SDS011;5371;49.782;9.932;2023-03-14T02:08:16;1.92;;;0.80;;
10645;SDS011;5371;49.782;9.932;2023-03-14T02:10:59;3.53;;;0.80;;
10645;SDS011;5371;49.782;9.932;2023-03-14T02:13:55;0.98;;;0.70;;
10645;SDS011;5371;49.782;9.932;2023-03-14T02:16:42;0.63;;;0.60;;
10645;SDS011;5371;49.782;9.932;2023-03-14T02:19:31;0.88;;;0.80;;
10645;SDS011;5371;49.782;9.932;2023-03-14T02:22:34;0.80;;;0.70;;
10645;SDS011;5371;49.782;9.932;2023-03-14T02:25:08;0.73;;;0.65;;
10645;SDS011;5371;49.782;9.932;2023-03-14T02:27:39;1.25;;;0.70;;
10645;SDS011;5371;49.782;9.932;2023-03-14T02:30:08;1.30;;;0.82;;
10645;SDS011;5371;49.782;9.932;2023-03-14T02:32:41;0.77;;;0.68;;
10645;SDS011;5371;49.782;9.932;2023-03-14T02:35:14;1.73;;;0.80;;
10645;SDS011;5371;49.782;9.932;2023-03-14T02:37:46;2.47;;;0.82;;
10645;SDS011;5371;49.782;9.932;2023-03-14T02:40:17;2.35;;;0.80;;
10645;SDS011;5371;49.782;9.932;2023-03-14T02:42:49;1.05;;;0.70;;
10645;SDS011;5371;49.782;9.932;2023-03-14T02:45:37;1.35;;;0.80;;
10645;SDS011;5371;49.782;9.932;2023-03-14T02:48:08;1.50;;;0.90;;
10645;SDS011;5371;49.782;9.932;2023-03-14T02:50:40;2.80;;;0.70;;
10645;SDS011;5371;49.782;9.932;2023-03-14T02:53:08;1.52;;;0.80;;
10645;SDS011;5371;49.782;9.932;2023-03-14T02:55:35;0.95;;;0.68;;
10645;SDS011;5371;49.782;9.932;2023-03-14T02:58:10;1.17;;;0.85;;
10645;SDS011;5371;49.782;9.932;2023-03-14T03:00:37;2.08;;;0.80;;
10645;SDS011;5371;49.782;9.932;2023-03-14T03:03:06;2.35;;;0.80;;
10645;SDS011;5371;49.782;9.932;2023-03-14T03:05:33;1.70;;;0.90;;
10645;SDS011;5371;49.782;9.932;2023-03-14T03:08:01;2.40;;;0.82;;
10645;SDS011;5371;49.782;9.932;2023-03-14T03:10:30;3.63;;;0.70;;
10645;SDS011;5371;49.782;9.932;2023-03-14T03:12:57;2.63;;;0.77;;
10645;SDS011;5371;49.782;9.932;2023-03-14T03:15:27;1.85;;;0.85;;
10645;SDS011;5371;49.782;9.932;2023-03-14T03:17:55;2.38;;;0.80;;
10645;SDS011;5371;49.782;9.932;2023-03-14T03:20:22;1.95;;;0.90;;
10645;SDS011;5371;49.782;9.932;2023-03-14T03:22:49;1.83;;;1.00;;
10645;SDS011;5371;49.782;9.932;2023-03-14T03:25:16;1.23;;;0.80;;
10645;SDS011;5371;49.782;9.932;2023-03-14T03:27:44;1.15;;;0.88;;
10645;SDS011;5371;49.782;9.932;2023-03-14T03:30:14;2.40;;;0.70;;
10645;SDS011;5371;49.782;9.932;2023-03-14T03:32:43;2.40;;;0.88;;
10645;SDS011;5371;49.782;9.932;2023-03-14T03:35:11;1.60;;;0.90;;
10645;SDS011;5371;49.782;9.932;2023-03-14T03:37:38;2.17;;;0.80;;
10645;SDS011;5371;49.782;9.932;2023-03-14T03:40:06;2.22;;;0.90;;
10645;SDS011;5371;49.782;9.932;2023-03-14T03:42:35;1.90;;;0.68;;
10645;SDS011;5371;49.782;9.932;2023-03-14T03:45:05;1.58;;;0.80;;
10645;SDS011;5371;49.782;9.932;2023-03-14T03:47:36;2.08;;;1.10;;
10645;SDS011;5371;49.782;9.932;2023-03-14T03:50:06;1.15;;;0.80;;
10645;SDS011;5371;49.782;9.932;2023-03-14T03:52:33;3.35;;;1.00;;
10645;SDS011;5371;49.782;9.932;2023-03-14T03:55:00;1.48;;;0.80;;
10645;SDS011;5371;49.782;9.932;2023-03-14T03:57:27;4.30;;;1.00;;
10645;SDS011;5371;49.782;9.932;2023-03-14T03:59:55;1.27;;;0.80;;
10645;SDS011;5371;49.782;9.932;2023-03-14T04:02:22;2.00;;;1.00;;
10645;SDS011;5371;49.782;9.932;2023-03-14T04:04:50;3.90;;;0.93;;
10645;SDS011;5371;49.782;9.932;2023-03-14T04:07:19;1.13;;;0.80;;
10645;SDS011;5371;49.782;9.932;2023-03-14T04:09:46;1.20;;;0.90;;
10645;SDS011;5371;49.782;9.932;2023-03-14T04:12:31;1.83;;;0.90;;
10645;SDS011;5371;49.782;9.932;2023-03-14T04:15:05;2.42;;;0.80;;
10645;SDS011;5371;49.782;9.932;2023-03-14T04:17:34;1.17;;;0.82;;
10645;SDS011;5371;49.782;9.932;2023-03-14T04:20:01;1.55;;;0.93;;
10645;SDS011;5371;49.782;9.932;2023-03-14T04:22:35;1.65;;;1.10;;
10645;SDS011;5371;49.782;9.932;2023-03-14T04:25:03;4.00;;;1.00;;
10645;SDS011;5371;49.782;9.932;2023-03-14T04:27:35;3.33;;;1.10;;
10645;SDS011;5371;49.782;9.932;2023-03-14T04:30:06;3.55;;;0.85;;
10645;SDS011;5371;49.782;9.932;2023-03-14T04:32:46;2.55;;;1.00;;
10645;SDS011;5371;49.782;9.932;2023-03-14T04:35:14;3.65;;;1.05;;
10645;SDS011;5371;49.782;9.932;2023-03-14T04:37:42;2.28;;;0.85;;
10645;SDS011;5371;49.782;9.932;2023-03-14T04:40:11;0.80;;;0.80;;
10645;SDS011;5371;49.782;9.932;2023-03-14T04:42:38;1.67;;;0.75;;
10645;SDS011;5371;49.782;9.932;2023-03-14T04:45:06;2.50;;;0.90;;
10645;SDS011;5371;49.782;9.932;2023-03-14T04:47:35;2.38;;;0.98;;
10645;SDS011;5371;49.782;9.932;2023-03-14T04:50:04;3.28;;;1.23;;
10645;SDS011;5371;49.782;9.932;2023-03-14T04:52:31;2.05;;;0.93;;
10645;SDS011;5371;49.782;9.932;2023-03-14T04:55:01;2.08;;;0.98;;
10645;SDS011;5371;49.782;9.932;2023-03-14T04:57:28;1.98;;;0.90;;
10645;SDS011;5371;49.782;9.932;2023-03-14T04:59:55;2.63;;;0.90;;
10645;SDS011;5371;49.782;9.932;2023-03-14T05:02:40;2.03;;;0.90;;
10645;SDS011;5371;49.782;9.932;2023-03-14T05:05:30;1.50;;;0.90;;
10645;SDS011;5371;49.782;9.932;2023-03-14T05:08:02;2.55;;;1.10;;
10645;SDS011;5371;49.782;9.932;2023-03-14T05:10:52;1.50;;;0.98;;
10645;SDS011;5371;49.782;9.932;2023-03-14T05:13:38;1.73;;;0.90;;
10645;SDS011;5371;49.782;9.932;2023-03-14T05:16:24;1.67;;;0.95;;
10645;SDS011;5371;49.782;9.932;2023-03-14T05:18:59;2.03;;;1.00;;
10645;SDS011;5371;49.782;9.932;2023-03-14T05:21:36;2.45;;;0.82;;
10645;SDS011;5371;49.782;9.932;2023-03-14T05:24:16;2.40;;;0.90;;
10645;SDS011;5371;49.782;9.932;2023-03-14T05:26:57;1.67;;;0.93;;
10645;SDS011;5371;49.782;9.932;2023-03-14T05:29:32;1.73;;;0.93;;
10645;SDS011;5371;49.782;9.932;2023-03-14T05:32:07;1.38;;;0.80;;
10645;SDS011;5371;49.782;9.932;2023-03-14T05:34:56;3.90;;;1.00;;
10645;SDS011;5371;49.782;9.932;2023-03-14T05:37:44;1.83;;;0.90;;
10645;SDS011;5371;49.782;9.932;2023-03-14T05:40:31;3.55;;;1.20;;
10645;SDS011;5371;49.782;9.932;2023-03-14T05:43:06;2.58;;;0.98;;
10645;SDS011;5371;49.782;9.932;2023-03-14T05:46:00;3.05;;;1.00;;
10645;SDS011;5371;49.782;9.932;2023-03-14T05:48:27;4.40;;;1.00;;
10645;SDS011;5371;49.782;9.932;2023-03-14T05:51:12;3.45;;;1.00;;
10645;SDS011;5371;49.782;9.932;2023-03-14T05:53:58;1.58;;;0.80;;
10645;SDS011;5371;49.782;9.932;2023-03-14T05:56:50;2.88;;;1.10;;
10645;SDS011;5371;49.782;9.932;2023-03-14T05:59:48;2.30;;;1.15;;
10645;SDS011;5371;49.782;9.932;2023-03-14T06:02:33;4.10;;;1.00;;
10645;SDS011;5371;49.782;9.932;2023-03-14T06:05:10;2.40;;;1.05;;
10645;SDS011;5371;49.782;9.932;2023-03-14T06:07:37;1.55;;;0.90;;
10645;SDS011;5371;49.782;9.932;2023-03-14T06:10:05;1.33;;;0.82;;
10645;SDS011;5371;49.782;9.932;2023-03-14T06:12:33;3.03;;;1.08;;
10645;SDS011;5371;49.782;9.932;2023-03-14T06:15:01;2.13;;;1.02;;
10645;SDS011;5371;49.782;9.932;2023-03-14T06:17:29;2.15;;;0.90;;
10645;SDS011;5371;49.782;9.932;2023-03-14T06:20:02;3.97;;;1.08;;
10645;SDS011;5371;49.782;9.932;2023-03-14T06:22:30;1.70;;;0.82;;
10645;SDS011;5371;49.782;9.932;2023-03-14T06:24:58;2.15;;;0.70;;
10645;SDS011;5371;49.782;9.932;2023-03-14T06:27:25;4.32;;;0.90;;
10645;SDS011;5371;49.782;9.932;2023-03-14T06:29:54;1.30;;;0.85;;
10645;SDS011;5371;49.782;9.932;2023-03-14T06:32:24;1.77;;;0.80;;
10645;SDS011;5371;49.782;9.932;2023-03-14T06:34:54;1.20;;;0.80;;
10645;SDS011;5371;49.782;9.932;2023-03-14T06:37:22;1.27;;;0.95;;
10645;SDS011;5371;49.782;9.932;2023-03-14T06:39:51;2.72;;;1.00;;
10645;SDS011;5371;49.782;9.932;2023-03-14T06:42:38;2.58;;;0.90;;
10645;SDS011;5371;49.782;9.932;2023-03-14T06:45:06;2.70;;;1.00;;
10645;SDS011;5371;49.782;9.932;2023-03-14T06:47:36;2.00;;;0.80;;
10645;SDS011;5371;49.782;9.932;2023-03-14T06:50:04;1.88;;;0.90;;
10645;SDS011;5371;49.782;9.932;2023-03-14T06:52:33;1.40;;;1.00;;
10645;SDS011;5371;49.782;9.932;2023-03-14T06:55:00;1.00;;;0.80;;
10645;SDS011;5371;49.782;9.932;2023-03-14T06:57:27;2.60;;;0.90;;
10645;SDS011;5371;49.782;9.932;2023-03-14T06:59:54;1.40;;;0.90;;
10645;SDS011;5371;49.782;9.932;2023-03-14T07:02:21;1.90;;;0.93;;
10645;SDS011;5371;49.782;9.932;2023-03-14T07:04:51;3.42;;;1.15;;
10645;SDS011;5371;49.782;9.932;2023-03-14T07:07:18;2.10;;;0.95;;
10645;SDS011;5371;49.782;9.932;2023-03-14T07:09:45;2.95;;;0.98;;
10645;SDS011;5371;49.782;9.932;2023-03-14T07:12:12;2.33;;;0.93;;
10645;SDS011;5371;49.782;9.932;2023-03-14T07:14:39;3.33;;;1.27;;
10645;SDS011;5371;49.782;9.932;2023-03-14T07:17:06;2.63;;;1.00;;
10645;SDS011;5371;49.782;9.932;2023-03-14T07:19:33;3.40;;;0.80;;
10645;SDS011;5371;49.782;9.932;2023-03-14T07:22:01;2.03;;;0.95;;
10645;SDS011;5371;49.782;9.932;2023-03-14T07:24:28;1.58;;;0.88;;
10645;SDS011;5371;49.782;9.932;2023-03-14T07:26:55;4.03;;;1.10;;
10645;SDS011;5371;49.782;9.932;2023-03-14T07:29:22;2.53;;;1.00;;
10645;SDS011;5371;49.782;9.932;2023-03-14T07:31:50;1.45;;;0.80;;
10645;SDS011;5371;49.782;9.932;2023-03-14T07:34:19;1.90;;;1.00;;
10645;SDS011;5371;49.782;9.932;2023-03-14T07:36:46;4.20;;;1.20;;
10645;SDS011;5371;49.782;9.932;2023-03-14T07:39:14;2.70;;;0.90;;
10645;SDS011;5371;49.782;9.932;2023-03-14T07:41:57;2.17;;;0.88;;
10645;SDS011;5371;49.782;9.932;2023-03-14T07:44:24;1.58;;;0.90;;
10645;SDS011;5371;49.782;9.932;2023-03-14T07:46:51;2.88;;;1.05;;
10645;SDS011;5371;49.782;9.932;2023-03-14T07:49:18;2.97;;;0.80;;
10645;SDS011;5371;49.782;9.932;2023-03-14T07:51:47;7.53;;;1.60;;
10645;SDS011;5371;49.782;9.932;2023-03-14T07:54:15;4.47;;;1.08;;
10645;SDS011;5371;49.782;9.932;2023-03-14T07:56:42;2.67;;;0.90;;
10645;SDS011;5371;49.782;9.932;2023-03-14T07:59:09;3.25;;;1.00;;
10645;SDS011;5371;49.782;9.932;2023-03-14T08:01:37;3.58;;;1.02;;
10645;SDS011;5371;49.782;9.932;2023-03-14T08:04:04;1.55;;;0.95;;
10645;SDS011;5371;49.782;9.932;2023-03-14T08:06:31;2.17;;;0.90;;
10645;SDS011;5371;49.782;9.932;2023-03-14T08:08:58;3.95;;;1.10;;
10645;SDS011;5371;49.782;9.932;2023-03-14T08:11:26;2.97;;;0.95;;
10645;SDS011;5371;49.782;9.932;2023-03-14T08:13:53;1.80;;;0.80;;
10645;SDS011;5371;49.782;9.932;2023-03-14T08:16:21;1.65;;;0.70;;
10645;SDS011;5371;49.782;9.932;2023-03-14T08:18:48;2.60;;;1.00;;
10645;SDS011;5371;49.782;9.932;2023-03-14T08:21:15;2.47;;;0.90;;
10645;SDS011;5371;49.782;9.932;2023-03-14T08:23:42;1.35;;;0.82;;
10645;SDS011;5371;49.782;9.932;2023-03-14T08:26:09;2.17;;;0.80;;
10645;SDS011;5371;49.782;9.932;2023-03-14T08:28:37;2.83;;;0.88;;
10645;SDS011;5371;49.782;9.932;2023-03-14T08:31:04;3.55;;;1.55;;
10645;SDS011;5371;49.782;9.932;2023-03-14T08:33:32;9.63;;;3.33;;
10645;SDS011;5371;49.782;9.932;2023-03-14T08:36:00;4.47;;;1.10;;
10645;SDS011;5371;49.782;9.932;2023-03-14T08:38:27;2.60;;;0.93;;
10645;SDS011;5371;49.782;9.932;2023-03-14T08:40:55;3.90;;;0.80;;
10645;SDS011;5371;49.782;9.932;2023-03-14T08:43:24;1.60;;;0.82;;
10645;SDS011;5371;49.782;9.932;2023-03-14T08:45:52;1.42;;;0.88;;
10645;SDS011;5371;49.782;9.932;2023-03-14T08:48:20;1.08;;;0.70;;
10645;SDS011;5371;49.782;9.932;2023-03-14T08:50:47;2.53;;;0.95;;
10645;SDS011;5371;49.782;9.932;2023-03-14T08:53:14;1.48;;;0.70;;
10645;SDS011;5371;49.782;9.932;2023-03-14T08:55:41;2.38;;;0.60;;
10645;SDS011;5371;49.782;9.932;2023-03-14T08:58:08;1.30;;;0.68;;
10645;SDS011;5371;49.782;9.932;2023-03-14T09:00:35;2.45;;;0.90;;
10645;SDS011;5371;49.782;9.932;2023-03-14T09:03:03;0.90;;;0.50;;
10645;SDS011;5371;49.782;9.932;2023-03-14T09:05:32;0.57;;;0.57;;
10645;SDS011;5371;49.782;9.932;2023-03-14T09:07:59;1.75;;;0.70;;
10645;SDS011;5371;49.782;9.932;2023-03-14T09:10:26;1.60;;;0.63;;
10645;SDS011;5371;49.782;9.932;2023-03-14T09:12:54;1.58;;;0.63;;
10645;SDS011;5371;49.782;9.932;2023-03-14T09:15:22;1.58;;;0.60;;
10645;SDS011;5371;49.782;9.932;2023-03-14T09:17:49;2.63;;;0.70;;
10645;SDS011;5371;49.782;9.932;2023-03-14T09:20:17;1.75;;;0.60;;
10645;SDS011;5371;49.782;9.932;2023-03-14T09:22:44;1.80;;;0.60;;
10645;SDS011;5371;49.782;9.932;2023-03-14T09:25:11;0.50;;;0.50;;
10645;SDS011;5371;49.782;9.932;2023-03-14T09:27:38;0.68;;;0.40;;
10645;SDS011;5371;49.782;9.932;2023-03-14T09:30:05;1.77;;;0.60;;
10645;SDS011;5371;49.782;9.932;2023-03-14T09:32:33;0.90;;;0.60;;
10645;SDS011;5371;49.782;9.932;2023-03-14T09:35:00;1.30;;;0.60;;
10645;SDS011;5371;49.782;9.932;2023-03-14T09:37:28;1.65;;;0.45;;
10645;SDS011;5371;49.782;9.932;2023-03-14T09:39:55;1.60;;;0.60;;
10645;SDS011;5371;49.782;9.932;2023-03-14T09:42:23;1.30;;;0.40;;
10645;SDS011;5371;49.782;9.932;2023-03-14T09:44:53;1.10;;;0.60;;
10645;SDS011;5371;49.782;9.932;2023-03-14T09:47:23;3.45;;;0.50;;
10645;SDS011;5371;49.782;9.932;2023-03-14T09:49:52;0.60;;;0.60;;
10645;SDS011;5371;49.782;9.932;2023-03-14T09:52:20;1.55;;;1.00;;
10645;SDS011;5371;49.782;9.932;2023-03-14T09:54:52;0.82;;;0.70;;
10645;SDS011;5371;49.782;9.932;2023-03-14T09:57:24;1.45;;;0.70;;
10645;SDS011;5371;49.782;9.932;2023-03-14T09:59:52;1.35;;;0.60;;
10645;SDS011;5371;49.782;9.932;2023-03-14T10:02:23;1.05;;;0.70;;
10645;SDS011;5371;49.782;9.932;2023-03-14T10:04:51;1.55;;;0.80;;
10645;SDS011;5371;49.782;9.932;2023-03-14T10:07:21;0.70;;;0.60;;
10645;SDS011;5371;49.782;9.932;2023-03-14T10:09:56;1.83;;;0.60;;
10645;SDS011;5371;49.782;9.932;2023-03-14T10:12:31;1.55;;;0.80;;
10645;SDS011;5371;49.782;9.932;2023-03-14T10:15:02;1.92;;;0.73;;
10645;SDS011;5371;49.782;9.932;2023-03-14T10:17:37;2.58;;;0.90;;
10645;SDS011;5371;49.782;9.932;2023-03-14T10:20:06;1.73;;;0.80;;
10645;SDS011;5371;49.782;9.932;2023-03-14T10:22:43;1.00;;;0.77;;
10645;SDS011;5371;49.782;9.932;2023-03-14T10:25:23;1.33;;;0.70;;
10645;SDS011;5371;49.782;9.932;2023-03-14T10:27:53;2.00;;;0.70;;
10645;SDS011;5371;49.782;9.932;2023-03-14T10:30:27;1.40;;;0.65;;
10645;SDS011;5371;49.782;9.932;2023-03-14T10:32:56;1.65;;;0.63;;
10645;SDS011;5371;49.782;9.932;2023-03-14T10:35:24;1.38;;;0.77;;
10645;SDS011;5371;49.782;9.932;2023-03-14T10:37:52;2.80;;;0.52;;
10645;SDS011;5371;49.782;9.932;2023-03-14T10:40:26;0.63;;;0.60;;
10645;SDS011;5371;49.782;9.932;2023-03-14T10:42:57;1.83;;;0.70;;
10645;SDS011;5371;49.782;9.932;2023-03-14T10:45:30;2.33;;;0.73;;
10645;SDS011;5371;49.782;9.932;2023-03-14T10:48:06;1.58;;;0.70;;
10645;SDS011;5371;49.782;9.932;2023-03-14T10:50:48;0.65;;;0.43;;
10645;SDS011;5371;49.782;9.932;2023-03-14T10:53:17;1.00;;;0.70;;
10645;SDS011;5371;49.782;9.932;2023-03-14T10:55:46;2.90;;;0.70;;
10645;SDS011;5371;49.782;9.932;2023-03-14T10:58:18;1.42;;;0.70;;
10645;SDS011;5371;49.782;9.932;2023-03-14T11:00:51;0.50;;;0.50;;
10645;SDS011;5371;49.782;9.932;2023-03-14T11:03:24;0.93;;;0.60;;
10645;SDS011;5371;49.782;9.932;2023-03-14T11:05:56;1.90;;;0.77;;
10645;SDS011;5371;49.782;9.932;2023-03-14T11:08:25;1.60;;;0.60;;
10645;SDS011;5371;49.782;9.932;2023-03-14T11:11:03;0.68;;;0.55;;
10645;SDS011;5371;49.782;9.932;2023-03-14T11:13:37;1.63;;;0.80;;
10645;SDS011;5371;49.782;9.932;2023-03-14T11:16:09;0.82;;;0.68;;
10645;SDS011;5371;49.782;9.932;2023-03-14T11:21:45;0.52;;;0.45;;
10645;SDS011;5371;49.782;9.932;2023-03-14T11:24:25;2.50;;;0.60;;
10645;SDS011;5371;49.782;9.932;2023-03-14T11:27:12;0.60;;;0.50;;
10645;SDS011;5371;49.782;9.932;2023-03-14T11:29:46;0.95;;;0.60;;
10645;SDS011;5371;49.782;9.932;2023-03-14T11:32:23;2.25;;;0.47;;
10645;SDS011;5371;49.782;9.932;2023-03-14T11:34:55;0.93;;;0.60;;
10645;SDS011;5371;49.782;9.932;2023-03-14T11:37:26;1.02;;;0.50;;
10645;SDS011;5371;49.782;9.932;2023-03-14T11:39:59;0.30;;;0.30;;
10645;SDS011;5371;49.782;9.932;2023-03-14T11:42:36;0.40;;;0.40;;
10645;SDS011;5371;49.782;9.932;2023-03-14T11:45:10;0.80;;;0.50;;
10645;SDS011;5371;49.782;9.932;2023-03-14T11:47:43;0.90;;;0.52;;
10645;SDS011;5371;49.782;9.932;2023-03-14T11:50:15;1.00;;;0.52;;
10645;SDS011;5371;49.782;9.932;2023-03-14T11:52:46;0.45;;;0.40;;
10645;SDS011;5371;49.782;9.932;2023-03-14T11:55:17;1.35;;;1.00;;
10645;SDS011;5371;49.782;9.932;2023-03-14T11:57:53;0.50;;;0.40;;
10645;SDS011;5371;49.782;9.932;2023-03-14T12:00:25;0.40;;;0.30;;
10645;SDS011;5371;49.782;9.932;2023-03-14T12:02:53;0.65;;;0.40;;
10645;SDS011;5371;49.782;9.932;2023-03-14T12:05:28;1.15;;;0.40;;
10645;SDS011;5371;49.782;9.932;2023-03-14T12:10:58;0.65;;;0.60;;
10645;SDS011;5371;49.782;9.932;2023-03-14T12:13:31;0.73;;;0.40;;
10645;SDS011;5371;49.782;9.932;2023-03-14T12:16:00;1.27;;;0.40;;
10645;SDS011;5371;49.782;9.932;2023-03-14T12:18:31;1.65;;;0.50;;
10645;SDS011;5371;49.782;9.932;2023-03-14T12:21:00;2.00;;;0.60;;
10645;SDS011;5371;49.782;9.932;2023-03-14T12:23:33;0.40;;;0.40;;
10645;SDS011;5371;49.782;9.932;2023-03-14T12:26:14;0.50;;;0.45;;
10645;SDS011;5371;49.782;9.932;2023-03-14T12:28:48;0.50;;;0.40;;
10645;SDS011;5371;49.782;9.932;2023-03-14T12:31:35;1.27;;;0.55;;
10645;SDS011;5371;49.782;9.932;2023-03-14T12:34:04;1.70;;;0.63;;
10645;SDS011;5371;49.782;9.932;2023-03-14T12:36:55;0.35;;;0.32;;
10645;SDS011;5371;49.782;9.932;2023-03-14T12:39:31;0.70;;;0.60;;
10645;SDS011;5371;49.782;9.932;2023-03-14T12:42:05;2.03;;;0.60;;
10645;SDS011;5371;49.782;9.932;2023-03-14T12:44:46;0.82;;;0.57;;
10645;SDS011;5371;49.782;9.932;2023-03-14T12:56:20;1.20;;;0.52;;
10645;SDS011;5371;49.782;9.932;2023-03-14T12:58:54;1.55;;;0.50;;
10645;SDS011;5371;49.782;9.932;2023-03-14T13:01:45;1.25;;;0.60;;
10645;SDS011;5371;49.782;9.932;2023-03-14T13:04:14;0.50;;;0.40;;
10645;SDS011;5371;49.782;9.932;2023-03-14T13:06:47;1.40;;;0.50;;
10645;SDS011;5371;49.782;9.932;2023-03-14T13:12:25;0.47;;;0.30;;
10645;SDS011;5371;49.782;9.932;2023-03-14T13:14:58;2.70;;;0.60;;
10645;SDS011;5371;49.782;9.932;2023-03-14T13:17:30;0.85;;;0.52;;
10645;SDS011;5371;49.782;9.932;2023-03-14T13:20:00;1.60;;;0.45;;
10645;SDS011;5371;49.782;9.932;2023-03-14T13:22:33;0.60;;;0.60;;
10645;SDS011;5371;49.782;9.932;2023-03-14T13:25:04;0.82;;;0.50;;
10645;SDS011;5371;49.782;9.932;2023-03-14T13:27:34;0.50;;;0.50;;
10645;SDS011;5371;49.782;9.932;2023-03-14T13:30:05;1.00;;;0.60;;
10645;SDS011;5371;49.782;9.932;2023-03-14T13:32:41;1.42;;;0.60;;
10645;SDS011;5371;49.782;9.932;2023-03-14T13:35:17;1.60;;;0.70;;
10645;SDS011;5371;49.782;9.932;2023-03-14T13:37:48;0.30;;;0.30;;
10645;SDS011;5371;49.782;9.932;2023-03-14T13:40:23;0.40;;;0.38;;
10645;SDS011;5371;49.782;9.932;2023-03-14T13:43:05;2.30;;;0.52;;
10645;SDS011;5371;49.782;9.932;2023-03-14T13:45:43;0.40;;;0.40;;
10645;SDS011;5371;49.782;9.932;2023-03-14T13:48:14;0.63;;;0.50;;
10645;SDS011;5371;49.782;9.932;2023-03-14T13:50:46;1.27;;;0.32;;
10645;SDS011;5371;49.782;9.932;2023-03-14T13:53:19;0.40;;;0.40;;
10645;SDS011;5371;49.782;9.932;2023-03-14T13:55:47;0.40;;;0.40;;
10645;SDS011;5371;49.782;9.932;2023-03-14T13:58:21;0.60;;;0.43;;
10645;SDS011;5371;49.782;9.932;2023-03-14T14:00:58;0.45;;;0.40;;
10645;SDS011;5371;49.782;9.932;2023-03-14T14:03:31;0.40;;;0.40;;
10645;SDS011;5371;49.782;9.932;2023-03-14T14:06:00;0.40;;;0.40;;
10645;SDS011;5371;49.782;9.932;2023-03-14T14:08:29;0.65;;;0.50;;
10645;SDS011;5371;49.782;9.932;2023-03-14T14:11:00;0.73;;;0.40;;
10645;SDS011;5371;49.782;9.932;2023-03-14T14:13:31;0.40;;;0.40;;
10645;SDS011;5371;49.782;9.932;2023-03-14T14:16:01;0.50;;;0.47;;
10645;SDS011;5371;49.782;9.932;2023-03-14T14:18:30;0.57;;;0.40;;
10645;SDS011;5371;49.782;9.932;2023-03-14T14:20:58;1.70;;;0.55;;
10645;SDS011;5371;49.782;9.932;2023-03-14T14:23:27;0.95;;;0.60;;
10645;SDS011;5371;49.782;9.932;2023-03-14T14:25:57;0.45;;;0.45;;
10645;SDS011;5371;49.782;9.932;2023-03-14T14:28:26;0.50;;;0.50;;
10645;SDS011;5371;49.782;9.932;2023-03-14T14:31:02;1.52;;;1.00;;
10645;SDS011;5371;49.782;9.932;2023-03-14T14:33:44;0.83;;;0.70;;
10645;SDS011;5371;49.782;9.932;2023-03-14T14:36:17;0.50;;;0.50;;
10645;SDS011;5371;49.782;9.932;2023-03-14T14:38:58;0.50;;;0.50;;
10645;SDS011;5371;49.782;9.932;2023-03-14T14:41:27;0.75;;;0.55;;
10645;SDS011;5371;49.782;9.932;2023-03-14T14:43:57;0.93;;;0.40;;
10645;SDS011;5371;49.782;9.932;2023-03-14T14:46:26;0.38;;;0.38;;
10645;SDS011;5371;49.782;9.932;2023-03-14T14:48:56;1.35;;;0.55;;
10645;SDS011;5371;49.782;9.932;2023-03-14T14:51:25;0.90;;;0.60;;
10645;SDS011;5371;49.782;9.932;2023-03-14T14:57:02;0.50;;;0.50;;
10645;SDS011;5371;49.782;9.932;2023-03-14T14:59:30;0.63;;;0.63;;
10645;SDS011;5371;49.782;9.932;2023-03-14T15:01:59;0.85;;;0.70;;
10645;SDS011;5371;49.782;9.932;2023-03-14T15:04:30;0.77;;;0.60;;
10645;SDS011;5371;49.782;9.932;2023-03-14T15:06:58;1.33;;;0.70;;
10645;SDS011;5371;49.782;9.932;2023-03-14T15:09:26;0.55;;;0.55;;
10645;SDS011;5371;49.782;9.932;2023-03-14T15:11:53;0.70;;;0.68;;
10645;SDS011;5371;49.782;9.932;2023-03-14T15:14:20;0.50;;;0.50;;
10645;SDS011;5371;49.782;9.932;2023-03-14T15:16:47;0.70;;;0.60;;
10645;SDS011;5371;49.782;9.932;2023-03-14T15:19:16;0.50;;;0.50;;
10645;SDS011;5371;49.782;9.932;2023-03-14T15:21:47;1.63;;;0.53;;
10645;SDS011;5371;49.782;9.932;2023-03-14T15:24:14;0.67;;;0.40;;
10645;SDS011;5371;49.782;9.932;2023-03-14T15:26:43;0.60;;;0.60;;
10645;SDS011;5371;49.782;9.932;2023-03-14T15:29:10;0.90;;;0.70;;
10645;SDS011;5371;49.782;9.932;2023-03-14T15:31:38;1.57;;;0.60;;
10645;SDS011;5371;49.782;9.932;2023-03-14T15:34:05;1.63;;;0.70;;
10645;SDS011;5371;49.782;9.932;2023-03-14T15:36:33;1.23;;;0.77;;
10645;SDS011;5371;49.782;9.932;2023-03-14T15:39:02;0.80;;;0.80;;
10645;SDS011;5371;49.782;9.932;2023-03-14T15:41:31;1.40;;;0.70;;
10645;SDS011;5371;49.782;9.932;2023-03-14T15:43:59;0.80;;;0.60;;
10645;SDS011;5371;49.782;9.932;2023-03-14T15:46:26;1.93;;;0.90;;
10645;SDS011;5371;49.782;9.932;2023-03-14T15:48:53;2.43;;;1.70;;